Toulon, Nevada
Current Conditions -  °F | °C
As of 8:53 AM on Saturday 22 Nov 2014 (Local Time) from KLOL Reporting Station
Few Clouds Few Clouds  
Wind Chill: 54°   Ceiling: Unl
Heat Index: 54°   Visibility: 10mi
Dew Point: 39°   Wind: 10mph
Humidity: 57%   Direction: 230°SW
Pressure: 29.89"   Gusts: NA
Location:  40.3545°N, 118.628°W
Report Text: KLOL 221653Z AUTO 23009KT 10SM FEW075 12/04 A2989 RMK AO2 SLP110 T01220039
Loading
Personal Weather Stations






























Interactive Weather Map New forecast layout! Learn more

10-Day Weather Forecast

Advertisements
Track Severe Weather on mobile